Weather History for KANK - September, 2013

Change the Weather History Date:

Tuesday, September 24, 2013

  Actual Average (KGUC) Record (KGUC)
Temperature  
Mean Temperature 54 °F -  
Max Temperature 70 °F 65 °F 77 °F (2001)
Min Temperature 38 °F 30 °F 23 °F (2006)
Degree Days  
Heating Degree Days 11    
Growing Degree Days 4 (Base 50)    
Moisture  
Dew Point 29 °F    
Average Humidity 41    
Maximum Humidity 72    
Minimum Humidity 17    
Precipitation  
Precipitation 0.00 in - - ()
Sea Level Pressure  
Sea Level Pressure 30.30 in    
Wind  
Wind Speed 9 mph (West)    
Max Wind Speed 15 mph    
Max Gust Speed 24 mph    
Visibility 10 miles    
Events      
Averages and records for this station are not official NWS values.
T = Trace of Precipitation, MM = Missing Value Source: NWS Daily Summary

Daily Weather History Graph

Daily Weather History Graph

Search for Another Location

Airport or City:

Trip Planner

Search our weather history database for the weather conditions in past years. The results will help you decide how hot, cold, wet, or windy it might be!

Date:

Astronomy

Sep. 24, 2013 Rise Set
Actual Time 6:53 AM MDT 6:57 PM MDT
Civil Twilight 6:27 AM MDT 7:23 PM MDT
Nautical Twilight 5:56 AM MDT 7:54 PM MDT
Astronomical Twilight 5:25 AM MDT 8:26 PM MDT
Moon 10:21 PM MDT 12:07 PM MDT
Length of Visible Light 12h 56m
Length of Day
12h 03m
Waning Gibbous, 72% of the Moon is Illuminated
Sep 24
Waning Gibbous
Sep 26
Last Quarter
Oct 4
New
Oct 11
First Quarter
Oct 18
Full

Hourly Weather History & Observations

Time (MDT) Temp. Windchill Dew Point Humidity Pressure Visibility Wind Dir Wind Speed Gust Speed Precip Events Conditions
12:15 AM 43.3 °F 37.7 °F 32.0 °F 64% 30.35 in 10.0 mi West 10.4 mph - N/A   Clear
12:35 AM 45.3 °F 41.6 °F 31.3 °F 58% 30.35 in 10.0 mi West 6.9 mph - N/A   Clear
12:55 AM 43.7 °F 39.7 °F 32.0 °F 63% 30.35 in 10.0 mi WNW 6.9 mph - N/A   Clear
1:35 AM 45.7 °F 41.0 °F 30.9 °F 56% 30.36 in 10.0 mi NW 9.2 mph - N/A   Clear
1:55 AM 45.5 °F 40.8 °F 30.6 °F 56% 30.37 in 10.0 mi NW 9.2 mph - N/A   Clear
2:15 AM 45.3 °F 40.6 °F 30.7 °F 57% 30.37 in 10.0 mi NW 9.2 mph - N/A   Clear
2:35 AM 45.0 °F 40.1 °F 30.2 °F 56% 30.36 in 10.0 mi NW 9.2 mph - N/A   Clear
2:55 AM 43.0 °F 37.2 °F 30.4 °F 61% 30.35 in 10.0 mi WNW 10.4 mph - N/A   Clear
3:15 AM 44.2 °F 38.8 °F 30.2 °F 58% 30.35 in 10.0 mi NW 10.4 mph - N/A   Clear
3:35 AM 44.2 °F 41.0 °F 30.0 °F 57% 30.35 in 10.0 mi NNW 5.8 mph - N/A   Clear
3:55 AM 43.5 °F 38.3 °F 30.2 °F 59% 30.36 in 10.0 mi NW 9.2 mph - N/A   Clear
4:15 AM 43.5 °F 40.1 °F 29.8 °F 59% 30.36 in 10.0 mi NW 5.8 mph - N/A   Clear
4:35 AM 40.3 °F 38.2 °F 29.8 °F 66% 30.37 in 10.0 mi West 3.5 mph - N/A   Clear
4:55 AM 38.7 °F 32.4 °F 30.2 °F 72% 30.36 in 10.0 mi NNW 9.2 mph - N/A   Clear
5:15 AM 41.0 °F 36.4 °F 30.2 °F 65% 30.37 in 10.0 mi NW 6.9 mph - N/A   Clear
5:35 AM 41.2 °F 36.0 °F 30.0 °F 65% 30.37 in 10.0 mi NNW 8.1 mph - N/A   Clear
5:55 AM 41.0 °F 35.8 °F 30.0 °F 65% 30.37 in 10.0 mi NNW 8.1 mph - N/A   Clear
6:15 AM 41.0 °F 35.2 °F 29.5 °F 64% 30.37 in 10.0 mi NNW 9.2 mph - N/A   Clear
6:35 AM 41.2 °F 35.0 °F 29.1 °F 62% 30.37 in 10.0 mi NNW 10.4 mph - N/A   Clear
6:55 AM 40.3 °F 33.4 °F 29.3 °F 65% 30.38 in 10.0 mi NNW 11.5 mph - N/A   Clear
7:15 AM 39.6 °F 33.0 °F 29.1 °F 66% 30.38 in 10.0 mi NNW 10.4 mph - N/A   Clear
7:35 AM 40.3 °F 35.5 °F 29.5 °F 65% 30.39 in 10.0 mi NNW 6.9 mph - N/A   Clear
7:55 AM 41.0 °F 35.8 °F 30.0 °F 65% 30.39 in 10.0 mi NNW 8.1 mph - N/A   Clear
8:15 AM 42.6 °F 36.8 °F 30.4 °F 62% 30.39 in 10.0 mi NNW 10.4 mph - N/A   Clear
8:35 AM 44.6 °F 40.2 °F 30.6 °F 58% 30.39 in 10.0 mi NNW 8.1 mph - N/A   Clear
8:55 AM 46.8 °F - 30.6 °F 53% 30.39 in 10.0 mi NNW 6.9 mph - N/A   Clear
9:15 AM 49.3 °F - 31.1 °F 50% 30.39 in 10.0 mi North 9.2 mph - N/A   Clear
9:35 AM 51.1 °F - 30.4 °F 45% 30.39 in 10.0 mi North 9.2 mph - N/A   Clear
9:55 AM 52.5 °F - 29.7 °F 42% 30.38 in 10.0 mi North 5.8 mph - N/A   Clear
10:15 AM 54.5 °F - 29.1 °F 38% 30.38 in 10.0 mi North 5.8 mph - N/A   Clear
10:35 AM 56.3 °F - 29.1 °F 35% 30.37 in 10.0 mi North 6.9 mph - N/A   Clear
10:55 AM 58.1 °F - 29.1 °F 33% 30.37 in 10.0 mi North 5.8 mph - N/A   Clear
11:15 AM 59.4 °F - 28.0 °F 30% 30.35 in 10.0 mi Calm Calm - N/A   Clear
11:55 AM 63.3 °F - 30.0 °F 29% 30.34 in 10.0 mi NE 3.5 mph - N/A   Clear
12:15 PM 64.4 °F - 30.2 °F 28% 30.32 in 10.0 mi ESE 4.6 mph - N/A   Clear
12:35 PM 68.5 °F - 22.1 °F 17% 30.31 in 10.0 mi SSW 11.5 mph 16.1 mph N/A   Clear
12:55 PM 68.9 °F - 21.9 °F 17% 30.30 in 10.0 mi SSW 15.0 mph 20.7 mph N/A   Clear
1:15 PM 69.8 °F - 23.9 °F 18% 30.29 in 10.0 mi SSW 12.7 mph 24.2 mph N/A   Clear
1:35 PM 69.8 °F - 22.8 °F 17% 30.29 in 10.0 mi SSW 13.8 mph 19.6 mph N/A   Clear
1:55 PM 70.2 °F - 25.0 °F 18% 30.27 in 10.0 mi SSW 11.5 mph 20.7 mph N/A   Clear
2:15 PM 70.5 °F - 24.8 °F 18% 30.27 in 10.0 mi SSW 12.7 mph 17.3 mph N/A   Clear
2:35 PM 70.0 °F - 26.1 °F 19% 30.26 in 10.0 mi South 9.2 mph 18.4 mph N/A   Clear
2:55 PM 69.8 °F - 24.3 °F 18% 30.25 in 10.0 mi South 12.7 mph 18.4 mph N/A   Clear
3:15 PM 69.6 °F - 27.1 °F 20% 30.25 in 10.0 mi South 15.0 mph 21.9 mph N/A   Clear
3:35 PM 70.0 °F - 25.5 °F 19% 30.24 in 10.0 mi South 13.8 mph 19.6 mph N/A   Clear
3:55 PM 69.8 °F - 25.5 °F 19% 30.23 in 10.0 mi South 13.8 mph 19.6 mph N/A   Clear
4:15 PM 69.6 °F - 27.1 °F 20% 30.22 in 10.0 mi South 12.7 mph 19.6 mph N/A   Clear
4:35 PM 69.1 °F - 27.5 °F 21% 30.22 in 10.0 mi South 13.8 mph 19.6 mph N/A   Clear
4:55 PM 69.1 °F - 26.2 °F 20% 30.22 in 10.0 mi South 13.8 mph 21.9 mph N/A   Clear
5:15 PM 68.7 °F - 25.9 °F 20% 30.21 in 10.0 mi South 13.8 mph 21.9 mph N/A   Clear
5:35 PM 68.2 °F - 23.5 °F 19% 30.21 in 10.0 mi South 11.5 mph 20.7 mph N/A   Clear
5:55 PM 67.3 °F - 21.7 °F 18% 30.20 in 10.0 mi South 15.0 mph 21.9 mph N/A   Clear
6:15 PM 66.2 °F - 22.3 °F 19% 30.20 in 10.0 mi South 13.8 mph 20.7 mph N/A   Clear
6:35 PM 64.9 °F - 23.9 °F 21% 30.20 in 10.0 mi South 11.5 mph 21.9 mph N/A   Clear
6:55 PM 63.7 °F - 25.2 °F 23% 30.20 in 10.0 mi South 12.7 mph 23.0 mph N/A   Clear
7:15 PM 62.8 °F - 25.2 °F 24% 30.20 in 10.0 mi South 13.8 mph 20.7 mph N/A   Clear
7:35 PM 62.4 °F - 27.3 °F 26% 30.20 in 10.0 mi SSW 12.7 mph 20.7 mph N/A   Clear
7:55 PM 60.8 °F - 28.0 °F 29% 30.21 in 10.0 mi SW 9.2 mph 17.3 mph N/A   Clear
8:15 PM 59.9 °F - 28.4 °F 30% 30.22 in 10.0 mi SW 4.6 mph - N/A   Clear
8:35 PM 57.9 °F - 29.8 °F 34% 30.22 in 10.0 mi SW 9.2 mph - N/A   Clear
8:55 PM 57.7 °F - 29.7 °F 34% 30.22 in 10.0 mi WSW 10.4 mph - N/A   Clear
9:15 PM 57.0 °F - 31.1 °F 37% 30.22 in 10.0 mi WSW 6.9 mph 10.4 mph N/A   Clear
9:35 PM 54.5 °F - 33.1 °F 44% 30.21 in 10.0 mi WSW 8.1 mph - N/A   Clear
9:55 PM 55.6 °F - 32.2 °F 41% 30.21 in 10.0 mi WSW 11.5 mph - N/A   Clear
10:15 PM 55.4 °F - 32.7 °F 42% 30.20 in 10.0 mi WSW 11.5 mph - N/A   Clear
10:35 PM 54.3 °F - 32.7 °F 44% 30.20 in 10.0 mi WSW 9.2 mph - N/A   Clear
10:55 PM 55.2 °F - 32.5 °F 42% 30.20 in 10.0 mi ESE 3.5 mph - N/A   Clear
11:15 PM 54.1 °F - 32.0 °F 43% 30.19 in 10.0 mi SSW 8.1 mph - N/A   Clear
11:35 PM 55.6 °F - 31.8 °F 41% 30.19 in 10.0 mi West 5.8 mph - N/A   Clear
11:55 PM 54.5 °F - 32.4 °F 43% 30.19 in 10.0 mi Calm Calm - N/A   Clear